createdAt,value
2022-11-04T00:00:02.731Z,1005.33
2022-11-04T00:05:02.510Z,1005.35
2022-11-04T00:10:03.159Z,1005.19
2022-11-04T00:15:02.948Z,1005.22
2022-11-04T00:20:02.735Z,1005.13
2022-11-04T00:25:02.370Z,1005.14
2022-11-04T00:30:02.735Z,1005.38
2022-11-04T00:35:02.369Z,1005.19
2022-11-04T00:40:03.194Z,1005.37
2022-11-04T00:45:02.866Z,1005.41
2022-11-04T00:50:02.563Z,1005.4
2022-11-04T00:55:04.956Z,1005.29
2022-11-04T01:00:02.937Z,1005.23
2022-11-04T01:05:02.959Z,1005.26
2022-11-04T01:10:02.767Z,1005.34
2022-11-04T01:15:03.383Z,1005.27
2022-11-04T01:20:03.125Z,1005.08
2022-11-04T01:25:03.037Z,1005.06
2022-11-04T01:30:10.328Z,1005.09
2022-11-04T01:35:03.069Z,1004.98
2022-11-04T01:40:03.560Z,1004.91
2022-11-04T01:45:03.368Z,1004.92
2022-11-04T01:50:02.898Z,1004.84
2022-11-04T01:55:03.617Z,1004.65
2022-11-04T02:00:03.405Z,1004.68
2022-11-04T02:05:02.734Z,1004.7
2022-11-04T02:10:02.276Z,1004.62
2022-11-04T02:15:02.642Z,1004.56
2022-11-04T02:20:02.465Z,1004.68
2022-11-04T02:25:03.092Z,1004.84
2022-11-04T02:30:02.759Z,1004.67
2022-11-04T02:35:02.411Z,1004.78
2022-11-04T02:40:03.064Z,1004.75
2022-11-04T02:45:02.905Z,1004.76
2022-11-04T02:50:02.622Z,1004.9
2022-11-04T02:55:04.157Z,1005
2022-11-04T03:00:02.452Z,1004.98
2022-11-04T03:05:03.606Z,1004.87
2022-11-04T03:10:03.236Z,1004.99
2022-11-04T03:15:03.003Z,1004.92
2022-11-04T03:20:02.667Z,1004.8
2022-11-04T03:25:03.462Z,1004.9
2022-11-04T03:30:03.452Z,1004.73
2022-11-04T03:35:02.646Z,1004.68
2022-11-04T03:40:03.432Z,1004.94
2022-11-04T03:45:03.081Z,1004.9
2022-11-04T03:50:02.901Z,1004.86
2022-11-04T03:55:04.917Z,1004.9
2022-11-04T04:00:03.350Z,1004.72
2022-11-04T04:05:02.575Z,1004.81
2022-11-04T04:10:02.308Z,1004.8
2022-11-04T04:15:03.019Z,1004.84
2022-11-04T04:20:02.651Z,1005.01
2022-11-04T04:25:02.428Z,1005.01
2022-11-04T04:30:03.046Z,1005.07
2022-11-04T04:35:02.622Z,1005.14
2022-11-04T04:40:02.259Z,1005.15
2022-11-04T04:45:03.018Z,1005.12
2022-11-04T04:50:02.591Z,1005.16
2022-11-04T04:55:03.802Z,1005.35
2022-11-04T05:00:03.076Z,1005.41
2022-11-04T05:05:03.486Z,1005.34
2022-11-04T05:10:02.768Z,1005.36
2022-11-04T05:15:03.529Z,1005.28
2022-11-04T05:20:03.183Z,1005.41
2022-11-04T05:25:02.957Z,1005.4
2022-11-04T05:30:03.162Z,1005.55
2022-11-04T05:35:02.746Z,1005.42
2022-11-04T05:40:02.433Z,1005.43
2022-11-04T05:45:03.074Z,1005.49
2022-11-04T05:50:02.713Z,1005.59
2022-11-04T05:55:03.969Z,1005.68
2022-11-04T06:00:03.162Z,1005.66
2022-11-04T06:05:03.151Z,1005.7
2022-11-04T06:10:02.795Z,1005.74
2022-11-04T06:15:03.466Z,1005.72
2022-11-04T06:20:03.139Z,1005.8
2022-11-04T06:25:02.753Z,1005.91
2022-11-04T06:30:02.884Z,1005.98
2022-11-04T06:35:02.493Z,1005.96
2022-11-04T06:40:02.308Z,1006.08
2022-11-04T06:45:02.956Z,1006.16
2022-11-04T06:50:02.526Z,1006.17
2022-11-04T06:55:04.763Z,1006.23
2022-11-04T07:00:02.727Z,1006.31
2022-11-04T07:05:02.463Z,1006.29
2022-11-04T07:10:03.037Z,1006.28
2022-11-04T07:15:02.719Z,1006.32
2022-11-04T07:20:02.438Z,1006.22
2022-11-04T07:25:03.045Z,1006.13
2022-11-04T07:30:02.774Z,1006.25
2022-11-04T07:35:02.405Z,1006.21
2022-11-04T07:40:02.288Z,1006.22
2022-11-04T07:45:03.040Z,1006.28
2022-11-04T07:50:06.639Z,1006.4
2022-11-04T07:55:03.757Z,1006.51
2022-11-04T08:00:02.898Z,1006.37
2022-11-04T08:05:02.549Z,1006.33
2022-11-04T08:10:03.202Z,1006.24
2022-11-04T08:15:02.874Z,1006.39
2022-11-04T08:20:02.577Z,1006.37
2022-11-04T08:25:03.207Z,1006.49
2022-11-04T08:30:02.922Z,1006.52
2022-11-04T08:35:02.518Z,1006.6
2022-11-04T08:40:02.707Z,1006.64
2022-11-04T08:45:02.985Z,1006.54
2022-11-04T08:50:02.640Z,1006.62
2022-11-04T08:55:04.089Z,1006.47
2022-11-04T09:00:02.939Z,1006.57
2022-11-04T09:05:03.051Z,1006.75
2022-11-04T09:10:02.709Z,1006.66
2022-11-04T09:15:03.419Z,1006.48
2022-11-04T09:20:03.075Z,1006.39
2022-11-04T09:25:02.786Z,1006.32
2022-11-04T09:30:03.460Z,1006.24
2022-11-04T09:35:03.312Z,1006.24
2022-11-04T09:40:03.031Z,1006.29
2022-11-04T09:45:24.428Z,1006.33
2022-11-04T09:50:02.648Z,1006.3
2022-11-04T09:55:04.053Z,1006.36
2022-11-04T10:00:03.444Z,1006.34
2022-11-04T10:05:03.085Z,1006.43
2022-11-04T10:10:02.792Z,1006.54
2022-11-04T10:15:03.732Z,1006.58
2022-11-04T10:20:03.301Z,1006.75
2022-11-04T10:25:03.089Z,1006.83
2022-11-04T10:30:03.247Z,1006.99
2022-11-04T10:35:03.437Z,1007.05
2022-11-04T10:40:03.076Z,1007.1
2022-11-04T10:45:02.766Z,1007.28
2022-11-04T10:50:31.979Z,1007.42
2022-11-04T10:55:04.008Z,1007.44
2022-11-04T11:00:03.522Z,1007.4
2022-11-04T11:05:02.735Z,1007.42
2022-11-04T11:10:02.420Z,1007.47
2022-11-04T11:15:03.125Z,1007.51
2022-11-04T11:20:02.767Z,1007.58
2022-11-04T11:25:02.531Z,1007.68
2022-11-04T11:30:03.183Z,1007.58
2022-11-04T11:35:05.395Z,1007.5
2022-11-04T11:40:02.419Z,1007.47
2022-11-04T11:45:03.213Z,1007.45
2022-11-04T11:50:02.981Z,1007.41
2022-11-04T11:55:03.985Z,1007.35
2022-11-04T12:10:02.848Z,1007.34
2022-11-04T12:15:03.161Z,1007.42
2022-11-04T12:25:02.246Z,1007.61
2022-11-04T12:30:02.901Z,1007.64
2022-11-04T12:35:02.902Z,1007.66
2022-11-04T12:40:03.134Z,1007.56
2022-11-04T12:45:02.967Z,1007.62
2022-11-04T12:50:02.557Z,1007.74
2022-11-04T12:55:04.727Z,1007.8
2022-11-04T13:00:02.927Z,1007.89
2022-11-04T13:05:02.976Z,1007.83
2022-11-04T13:10:03.622Z,1007.82
2022-11-04T13:15:03.327Z,1007.7
2022-11-04T13:20:03.057Z,1007.63
2022-11-04T13:25:03.631Z,1007.61
2022-11-04T13:30:03.547Z,1007.56
2022-11-04T13:35:03.193Z,1007.56
2022-11-04T13:40:02.819Z,1007.55
2022-11-04T13:45:03.509Z,1007.49
2022-11-04T13:50:03.162Z,1007.56
2022-11-04T13:55:03.573Z,1007.63
2022-11-04T14:00:02.796Z,1007.73
2022-11-04T14:05:02.951Z,1007.83
2022-11-04T14:10:02.795Z,1007.86
2022-11-04T14:15:02.464Z,1007.95
2022-11-04T14:20:03.087Z,1008
2022-11-04T14:25:02.945Z,1007.94
2022-11-04T14:30:02.585Z,1008
2022-11-04T14:35:03.315Z,1008.04
2022-11-04T14:40:02.828Z,1008.12
2022-11-04T14:45:02.636Z,1008.27
2022-11-04T14:55:04.754Z,1008.45
2022-11-04T15:00:02.751Z,1008.39
2022-11-04T15:05:02.770Z,1008.4
2022-11-04T15:10:03.158Z,1008.35
2022-11-04T15:15:02.806Z,1008.42
2022-11-04T15:20:02.447Z,1008.38
2022-11-04T15:25:02.277Z,1008.59
2022-11-04T15:30:03.140Z,1008.66
2022-11-04T15:35:02.576Z,1008.78
2022-11-04T15:40:03.232Z,1008.64
2022-11-04T15:45:02.821Z,1008.66
2022-11-04T15:50:03.348Z,1008.69
2022-11-04T15:55:03.601Z,1008.72
2022-11-04T16:00:03.079Z,1008.79
2022-11-04T16:05:02.986Z,1008.82
2022-11-04T16:10:10.048Z,1008.8
2022-11-04T16:15:02.974Z,1008.84
2022-11-04T16:20:02.898Z,1008.85
2022-11-04T16:25:03.256Z,1009
2022-11-04T16:30:02.489Z,1008.92
2022-11-04T16:35:02.833Z,1008.86
2022-11-04T16:40:03.252Z,1009.01
2022-11-04T16:45:02.318Z,1009.09
2022-11-04T16:50:03.222Z,1009.13
2022-11-04T16:55:03.993Z,1009.14
2022-11-04T17:00:02.920Z,1009.22
2022-11-04T17:05:02.772Z,1009.19
2022-11-04T17:10:03.109Z,1009.23
2022-11-04T17:15:02.985Z,1009.32
2022-11-04T17:20:03.207Z,1009.33
2022-11-04T17:25:02.925Z,1009.3
2022-11-04T17:30:03.259Z,1009.42
2022-11-04T17:35:03.545Z,1009.43
2022-11-04T17:40:03.333Z,1009.4
2022-11-04T17:45:03.060Z,1009.38
2022-11-04T17:50:02.374Z,1009.49
2022-11-04T17:55:04.136Z,1009.49
2022-11-04T18:00:02.747Z,1009.45
2022-11-04T18:05:02.398Z,1009.46
2022-11-04T18:10:02.453Z,1009.4
2022-11-04T18:15:03.197Z,1009.54
2022-11-04T18:20:02.849Z,1009.61
2022-11-04T18:25:02.993Z,1009.69
2022-11-04T18:30:02.767Z,1009.69
2022-11-04T18:35:02.832Z,1009.78
2022-11-04T18:40:03.489Z,1009.78
2022-11-04T18:45:03.239Z,1009.71
2022-11-04T18:50:02.833Z,1009.64
2022-11-04T18:55:04.282Z,1009.64
2022-11-04T19:00:03.063Z,1009.63
2022-11-04T19:05:02.959Z,1009.75
2022-11-04T19:10:02.286Z,1009.7
2022-11-04T19:15:03.467Z,1009.96
2022-11-04T19:20:13.365Z,1009.9
2022-11-04T19:25:02.672Z,1010
2022-11-04T19:30:02.828Z,1009.98
2022-11-04T19:35:02.485Z,1010
2022-11-04T19:40:03.146Z,1010.05
2022-11-04T19:45:02.943Z,1010.06
2022-11-04T19:50:02.625Z,1010.15
2022-11-04T19:55:04.069Z,1010.17
2022-11-04T20:00:03.646Z,1010.25
2022-11-04T20:05:03.011Z,1010.26
2022-11-04T20:10:02.748Z,1010.3
2022-11-04T20:15:03.529Z,1010.45
2022-11-04T20:20:03.086Z,1010.51
2022-11-04T20:25:02.891Z,1010.59
2022-11-04T20:30:03.683Z,1010.57
2022-11-04T20:35:03.350Z,1010.67
2022-11-04T20:40:03.849Z,1010.64
2022-11-04T20:45:03.021Z,1010.72
2022-11-04T20:50:02.650Z,1010.75
2022-11-04T20:55:04.414Z,1010.89
2022-11-04T21:00:03.237Z,1010.94
2022-11-04T21:05:02.475Z,1010.94
2022-11-04T21:10:03.219Z,1010.99
2022-11-04T21:15:02.872Z,1011.05
2022-11-04T21:20:02.596Z,1011.14
2022-11-04T21:25:03.321Z,1011.28
2022-11-04T21:30:02.707Z,1011.22
2022-11-04T21:35:03.301Z,1011.2
2022-11-04T21:40:03.079Z,1011.23
2022-11-04T21:45:02.832Z,1011.18
2022-11-04T21:50:03.569Z,1011.27
2022-11-04T21:55:04.492Z,1011.37
2022-11-04T22:00:02.953Z,1011.4
2022-11-04T22:05:03.194Z,1011.35
2022-11-04T22:10:03.467Z,1011.36
2022-11-04T22:15:02.977Z,1011.36
2022-11-04T22:20:02.678Z,1011.4
2022-11-04T22:25:03.037Z,1011.41
2022-11-04T22:30:02.391Z,1011.29
2022-11-04T22:35:03.067Z,1011.38
2022-11-04T22:40:03.222Z,1011.35
2022-11-04T22:45:03.955Z,1011.41
2022-11-04T22:50:03.010Z,1011.48
2022-11-04T22:55:03.697Z,1011.52
2022-11-04T23:00:03.695Z,1011.47
2022-11-04T23:05:03.333Z,1011.55
2022-11-04T23:10:02.527Z,1011.61
2022-11-04T23:15:02.378Z,1011.63
2022-11-04T23:20:03.070Z,1011.7
2022-11-04T23:25:02.715Z,1011.63
2022-11-04T23:30:02.525Z,1011.82
2022-11-04T23:35:02.320Z,1011.82
2022-11-04T23:40:03.183Z,1011.83
2022-11-04T23:45:02.941Z,1011.77
2022-11-04T23:50:02.559Z,1011.87
2022-11-04T23:55:03.809Z,1011.89
